createdAt,value
2018-04-14T00:00:16.632Z,11.80
2018-04-14T00:02:44.907Z,11.80
2018-04-14T00:05:13.216Z,11.80
2018-04-14T00:07:40.785Z,11.80
2018-04-14T00:10:08.261Z,11.80
2018-04-14T00:12:36.914Z,11.80
2018-04-14T00:15:04.376Z,11.80
2018-04-14T00:17:32.688Z,11.80
2018-04-14T00:20:00.269Z,11.80
2018-04-14T00:22:27.857Z,11.80
2018-04-14T00:24:55.311Z,11.90
2018-04-14T00:27:22.828Z,11.90
2018-04-14T00:29:50.313Z,11.90
2018-04-14T00:32:17.833Z,11.90
2018-04-14T00:34:46.140Z,11.90
2018-04-14T00:37:14.411Z,11.90
2018-04-14T00:39:42.696Z,11.90
2018-04-14T00:42:10.165Z,11.90
2018-04-14T00:44:37.719Z,11.90
2018-04-14T00:47:05.223Z,11.90
2018-04-14T00:49:32.778Z,11.90
2018-04-14T00:52:00.281Z,11.90
2018-04-14T00:54:27.747Z,11.90
2018-04-14T00:56:55.349Z,11.80
2018-04-14T00:59:22.967Z,11.80
2018-04-14T01:01:51.228Z,11.80
2018-04-14T01:04:18.687Z,11.80
2018-04-14T01:06:46.549Z,11.80
2018-04-14T01:09:14.032Z,11.90
2018-04-14T01:11:41.510Z,11.90
2018-04-14T01:14:09.023Z,11.90
2018-04-14T01:16:36.521Z,11.80
2018-04-14T01:19:04.089Z,11.80
2018-04-14T01:21:31.556Z,11.80
2018-04-14T01:23:59.069Z,11.80
2018-04-14T01:26:26.580Z,11.80
2018-04-14T01:28:54.461Z,11.80
2018-04-14T01:31:22.042Z,11.80
2018-04-14T01:33:49.572Z,11.80
2018-04-14T01:36:17.045Z,11.80
2018-04-14T01:38:44.596Z,11.80
2018-04-14T01:41:12.115Z,11.80
2018-04-14T01:43:39.613Z,11.80
2018-04-14T01:46:07.899Z,11.80
2018-04-14T01:48:35.435Z,11.80
2018-04-14T01:51:02.967Z,11.80
2018-04-14T01:53:30.495Z,11.80
2018-04-14T01:55:58.056Z,11.80
2018-04-14T01:58:25.579Z,11.80
2018-04-14T02:00:53.843Z,11.70
2018-04-14T02:03:22.161Z,11.70
2018-04-14T02:05:49.656Z,11.70
2018-04-14T02:08:17.240Z,11.70
2018-04-14T02:10:45.584Z,11.70
2018-04-14T02:13:13.080Z,11.70
2018-04-14T02:15:40.701Z,11.70
2018-04-14T02:18:08.324Z,11.70
2018-04-14T02:20:35.914Z,11.70
2018-04-14T02:23:03.424Z,11.60
2018-04-14T02:25:30.930Z,11.60
2018-04-14T02:27:58.483Z,11.60
2018-04-14T02:30:25.996Z,11.60
2018-04-14T02:32:53.568Z,11.50
2018-04-14T02:35:21.142Z,11.50
2018-04-14T02:37:48.593Z,11.40
2018-04-14T02:40:16.179Z,11.40
2018-04-14T02:42:43.720Z,11.40
2018-04-14T02:45:11.970Z,11.40
2018-04-14T02:47:39.473Z,11.30
2018-04-14T02:50:06.994Z,11.30
2018-04-14T02:52:34.592Z,11.30
2018-04-14T02:55:02.226Z,11.30
2018-04-14T02:57:29.720Z,11.30
2018-04-14T02:59:57.209Z,11.30
2018-04-14T03:02:24.838Z,11.30
2018-04-14T03:04:52.356Z,11.20
2018-04-14T03:07:19.881Z,11.20
2018-04-14T03:09:47.363Z,11.20
2018-04-14T03:12:14.865Z,11.20
2018-04-14T03:14:43.146Z,11.20
2018-04-14T03:17:10.672Z,11.10
2018-04-14T03:19:38.185Z,11.20
2018-04-14T03:22:05.668Z,11.20
2018-04-14T03:24:33.219Z,11.20
2018-04-14T03:27:00.684Z,11.20
2018-04-14T03:29:28.257Z,11.20
2018-04-14T03:31:55.933Z,11.20
2018-04-14T03:34:23.456Z,11.20
2018-04-14T03:36:51.049Z,11.10
2018-04-14T03:39:18.622Z,11.10
2018-04-14T03:41:46.121Z,11.10
2018-04-14T03:44:13.614Z,11.00
2018-04-14T03:46:41.888Z,11.00
2018-04-14T03:49:10.182Z,10.90
2018-04-14T03:51:37.962Z,10.90
2018-04-14T03:54:05.561Z,10.90
2018-04-14T03:56:33.104Z,10.90
2018-04-14T03:59:00.624Z,10.90
2018-04-14T04:01:28.090Z,10.90
2018-04-14T04:03:56.544Z,10.90
2018-04-14T04:06:24.057Z,10.80
2018-04-14T04:08:52.294Z,10.80
2018-04-14T04:11:19.802Z,10.80
2018-04-14T04:13:47.316Z,10.80
2018-04-14T04:16:14.865Z,10.90
2018-04-14T04:18:42.393Z,10.90
2018-04-14T04:21:09.959Z,10.90
2018-04-14T04:23:37.449Z,10.90
2018-04-14T04:26:04.981Z,10.90
2018-04-14T04:28:32.461Z,10.90
2018-04-14T04:31:00.830Z,10.90
2018-04-14T04:33:29.138Z,11.00
2018-04-14T04:35:56.638Z,10.90
2018-04-14T04:38:24.160Z,11.00
2018-04-14T04:40:51.718Z,11.00
2018-04-14T04:43:19.177Z,11.00
2018-04-14T04:45:46.657Z,11.00
2018-04-14T04:48:14.215Z,11.00
2018-04-14T04:50:41.864Z,11.00
2018-04-14T04:53:09.290Z,11.10
2018-04-14T04:55:37.631Z,11.10
2018-04-14T04:58:05.195Z,11.00
2018-04-14T05:00:32.735Z,11.00
2018-04-14T05:03:00.282Z,11.10
2018-04-14T05:05:27.830Z,11.10
2018-04-14T05:07:57.296Z,11.10
2018-04-14T05:10:24.879Z,11.10
2018-04-14T05:12:52.381Z,11.10
2018-04-14T05:15:20.660Z,11.10
2018-04-14T05:17:49.061Z,11.10
2018-04-14T05:20:16.594Z,11.10
2018-04-14T05:22:44.078Z,11.10
2018-04-14T05:25:12.474Z,11.10
2018-04-14T05:27:39.925Z,11.10
2018-04-14T05:30:07.557Z,11.10
2018-04-14T05:32:35.773Z,11.10
2018-04-14T05:35:04.373Z,11.20
2018-04-14T05:37:32.009Z,11.10
2018-04-14T05:39:59.536Z,11.20
2018-04-14T05:42:27.066Z,11.20
2018-04-14T05:44:54.606Z,11.20
2018-04-14T05:47:22.095Z,11.20
2018-04-14T05:49:50.457Z,11.20
2018-04-14T05:52:17.996Z,11.20
2018-04-14T05:54:45.476Z,11.20
2018-04-14T05:57:13.840Z,11.20
2018-04-14T05:59:41.401Z,11.20
2018-04-14T06:02:08.831Z,11.20
2018-04-14T06:04:36.351Z,11.30
2018-04-14T06:07:04.642Z,11.30
2018-04-14T06:09:32.169Z,11.30
2018-04-14T06:11:59.710Z,11.30
2018-04-14T06:14:27.182Z,11.40
2018-04-14T06:16:54.673Z,11.40
2018-04-14T06:19:22.200Z,11.40
2018-04-14T06:21:49.701Z,11.40
2018-04-14T06:24:17.156Z,11.40
2018-04-14T06:26:44.826Z,11.50
2018-04-14T06:29:12.313Z,11.50
2018-04-14T06:31:39.958Z,11.50
2018-04-14T06:34:07.678Z,11.60
2018-04-14T06:36:35.180Z,11.60
2018-04-14T06:39:02.682Z,11.60
2018-04-14T06:41:30.972Z,11.60
2018-04-14T06:43:58.559Z,11.60
2018-04-14T06:46:26.197Z,11.60
2018-04-14T06:48:53.768Z,11.50
2018-04-14T06:51:21.313Z,11.50
2018-04-14T06:53:48.797Z,11.60
2018-04-14T06:56:16.306Z,11.60
2018-04-14T06:58:43.800Z,11.70
2018-04-14T07:01:11.353Z,11.80
2018-04-14T07:03:39.202Z,11.80
2018-04-14T07:06:06.685Z,11.80
2018-04-14T07:08:34.164Z,11.80
2018-04-14T07:11:01.669Z,11.80
2018-04-14T07:13:29.281Z,11.80
2018-04-14T07:15:56.800Z,11.70
2018-04-14T07:18:24.383Z,11.70
2018-04-14T07:20:52.013Z,11.70
2018-04-14T07:23:19.495Z,11.70
2018-04-14T07:25:47.015Z,11.80
2018-04-14T07:28:14.855Z,12.00
2018-04-14T07:30:42.278Z,12.00
2018-04-14T07:33:09.952Z,12.10
2018-04-14T07:35:37.416Z,12.20
2018-04-14T07:38:05.211Z,12.40
2018-04-14T07:40:32.672Z,12.90
2018-04-14T07:43:00.964Z,13.70
2018-04-14T07:45:28.478Z,13.70
2018-04-14T07:47:56.624Z,13.90
2018-04-14T07:50:24.853Z,13.80
2018-04-14T07:52:52.382Z,13.80
2018-04-14T07:55:20.651Z,13.50
2018-04-14T07:57:48.285Z,13.40
2018-04-14T08:00:15.729Z,13.20
2018-04-14T08:02:43.220Z,13.00
2018-04-14T08:05:10.708Z,13.00
2018-04-14T08:07:38.975Z,13.20
2018-04-14T08:10:07.256Z,13.80
2018-04-14T08:12:35.543Z,13.80
2018-04-14T08:15:03.795Z,13.80
2018-04-14T08:17:31.366Z,13.80
2018-04-14T08:19:58.839Z,14.00
2018-04-14T08:22:27.147Z,13.80
2018-04-14T08:24:54.593Z,13.80
2018-04-14T08:27:22.869Z,13.80
2018-04-14T08:29:51.134Z,13.90
2018-04-14T08:32:18.663Z,13.90
2018-04-14T08:34:46.307Z,14.10
2018-04-14T08:37:13.872Z,14.40
2018-04-14T08:39:41.305Z,14.70
2018-04-14T08:42:12.632Z,15.50
2018-04-14T08:44:40.085Z,15.40
2018-04-14T08:47:07.609Z,15.70
2018-04-14T08:49:35.207Z,15.80
2018-04-14T08:52:02.711Z,15.80
2018-04-14T08:54:30.276Z,15.90
2018-04-14T08:56:57.745Z,16.00
2018-04-14T08:59:25.374Z,16.30
2018-04-14T09:01:52.940Z,16.30
2018-04-14T09:04:21.804Z,16.40
2018-04-14T09:06:49.468Z,16.90
2018-04-14T09:09:16.874Z,17.70
2018-04-14T09:11:44.371Z,18.10
2018-04-14T09:14:12.662Z,18.40
2018-04-14T09:16:40.234Z,18.30
2018-04-14T09:19:07.758Z,19.10
2018-04-14T09:21:36.209Z,19.60
2018-04-14T09:24:03.739Z,19.80
2018-04-14T09:26:31.245Z,20.20
2018-04-14T09:28:58.694Z,20.50
2018-04-14T09:31:26.288Z,20.50
2018-04-14T09:33:53.787Z,20.70
2018-04-14T09:36:21.353Z,20.60
2018-04-14T09:38:49.070Z,20.50
2018-04-14T09:41:16.768Z,20.20
2018-04-14T09:43:45.136Z,20.40
2018-04-14T09:46:12.651Z,20.40
2018-04-14T09:48:40.452Z,20.80
2018-04-14T09:51:08.393Z,20.70
2018-04-14T09:53:35.838Z,20.60
2018-04-14T09:56:04.107Z,20.00
2018-04-14T09:58:31.635Z,20.00
2018-04-14T10:00:59.184Z,20.00
2018-04-14T10:03:26.842Z,19.40
2018-04-14T10:05:54.373Z,19.40
2018-04-14T10:08:22.630Z,20.20
2018-04-14T10:10:51.001Z,20.60
2018-04-14T10:13:18.527Z,20.60
2018-04-14T10:15:46.061Z,20.20
2018-04-14T10:18:13.541Z,20.40
2018-04-14T10:20:41.059Z,20.20
2018-04-14T10:23:09.322Z,19.40
2018-04-14T10:25:36.852Z,18.90
2018-04-14T10:28:04.294Z,19.30
2018-04-14T10:30:31.840Z,19.40
2018-04-14T10:33:00.763Z,19.30
2018-04-14T10:35:28.327Z,19.60
2018-04-14T10:37:55.876Z,19.80
2018-04-14T10:40:23.340Z,19.50
2018-04-14T10:42:51.613Z,20.10
2018-04-14T10:45:19.947Z,20.30
2018-04-14T10:47:47.512Z,20.30
2018-04-14T10:50:14.999Z,20.60
2018-04-14T10:52:42.502Z,20.10
2018-04-14T10:55:10.773Z,19.30
2018-04-14T10:57:39.108Z,19.10
2018-04-14T11:00:06.634Z,19.10
2018-04-14T11:02:34.135Z,19.10
2018-04-14T11:05:01.775Z,19.20
2018-04-14T11:07:29.269Z,19.20
2018-04-14T11:09:56.827Z,19.30
2018-04-14T11:12:25.046Z,20.00
2018-04-14T11:14:52.555Z,19.90
2018-04-14T11:17:20.064Z,19.50
2018-04-14T11:19:47.573Z,19.00
2018-04-14T11:22:15.173Z,18.70
2018-04-14T11:24:42.734Z,18.90
2018-04-14T11:27:10.976Z,19.30
2018-04-14T11:29:38.921Z,19.80
2018-04-14T11:32:07.200Z,21.20
2018-04-14T11:34:34.727Z,21.20
2018-04-14T11:37:02.250Z,21.20
2018-04-14T11:39:29.732Z,20.90
2018-04-14T11:41:57.469Z,21.10
2018-04-14T11:44:24.921Z,21.30
2018-04-14T11:46:54.441Z,20.70
2018-04-14T11:49:22.029Z,20.70
2018-04-14T11:51:50.391Z,19.80
2018-04-14T11:54:18.613Z,19.10
2018-04-14T11:56:46.126Z,19.10
2018-04-14T11:59:13.673Z,19.20
2018-04-14T12:01:41.259Z,19.30
2018-04-14T12:04:09.605Z,18.80
2018-04-14T12:06:37.220Z,18.80
2018-04-14T12:09:04.773Z,19.20
2018-04-14T12:11:32.340Z,20.20
2018-04-14T12:13:59.842Z,20.40
2018-04-14T12:16:27.733Z,20.60
2018-04-14T12:18:55.328Z,20.70
2018-04-14T12:21:23.633Z,21.40
2018-04-14T12:23:51.095Z,21.40
2018-04-14T12:26:18.707Z,21.20
2018-04-14T12:28:46.274Z,20.70
2018-04-14T12:31:15.082Z,21.00
2018-04-14T12:33:42.936Z,21.60
2018-04-14T12:36:10.396Z,21.40
2018-04-14T12:38:37.874Z,21.00
2018-04-14T12:41:06.610Z,21.30
2018-04-14T12:43:34.887Z,20.70
2018-04-14T12:46:03.144Z,20.10
2018-04-14T12:48:32.302Z,20.10
2018-04-14T12:50:59.834Z,20.00
2018-04-14T12:53:27.418Z,20.20
2018-04-14T12:55:55.693Z,21.40
2018-04-14T12:58:23.977Z,21.80
2018-04-14T13:00:51.531Z,21.80
2018-04-14T13:03:19.016Z,21.60
2018-04-14T13:05:46.713Z,21.60
2018-04-14T13:08:15.357Z,22.20
2018-04-14T13:10:43.623Z,22.80
2018-04-14T13:13:11.138Z,22.80
2018-04-14T13:15:38.663Z,22.10
2018-04-14T13:18:06.856Z,20.70
2018-04-14T13:20:36.385Z,21.40
2018-04-14T13:23:04.091Z,21.30
2018-04-14T13:25:31.663Z,21.90
2018-04-14T13:27:59.236Z,22.50
2018-04-14T13:30:27.533Z,22.10
2018-04-14T13:32:55.744Z,22.10
2018-04-14T13:35:23.225Z,21.20
2018-04-14T13:37:50.824Z,20.50
2018-04-14T13:40:18.258Z,20.60
2018-04-14T13:42:46.620Z,20.90
2018-04-14T13:45:14.190Z,21.00
2018-04-14T13:47:41.746Z,20.70
2018-04-14T13:50:11.602Z,20.40
2018-04-14T13:52:39.022Z,20.60
2018-04-14T13:55:07.277Z,21.00
2018-04-14T13:57:34.777Z,21.30
2018-04-14T14:00:02.463Z,21.30
2018-04-14T14:02:30.628Z,21.10
2018-04-14T14:04:58.315Z,21.20
2018-04-14T14:07:26.591Z,20.60
2018-04-14T14:09:54.193Z,20.60
2018-04-14T14:12:22.458Z,20.70
2018-04-14T14:14:49.955Z,20.70
2018-04-14T14:17:17.496Z,20.60
2018-04-14T14:19:45.008Z,20.40
2018-04-14T14:22:12.498Z,20.00
2018-04-14T14:24:41.567Z,19.50
2018-04-14T14:27:09.516Z,19.50
2018-04-14T14:29:37.198Z,19.50
2018-04-14T14:32:04.704Z,19.40
2018-04-14T14:34:33.098Z,19.30
2018-04-14T14:37:01.342Z,19.00
2018-04-14T14:39:28.968Z,19.00
2018-04-14T14:41:56.461Z,19.00
2018-04-14T14:44:23.961Z,18.90
2018-04-14T14:46:51.462Z,19.00
2018-04-14T14:49:18.998Z,19.00
2018-04-14T14:51:46.971Z,19.00
2018-04-14T14:54:15.164Z,19.00
2018-04-14T14:56:42.695Z,18.70
2018-04-14T14:59:10.287Z,18.60
2018-04-14T15:01:38.617Z,18.40
2018-04-14T15:04:06.207Z,18.40
2018-04-14T15:06:33.795Z,18.30
2018-04-14T15:09:02.174Z,18.20
2018-04-14T15:11:29.917Z,18.20
2018-04-14T15:13:58.099Z,18.20
2018-04-14T15:16:26.877Z,18.40
2018-04-14T15:18:54.360Z,18.30
2018-04-14T15:21:21.865Z,18.30
2018-04-14T15:23:49.469Z,18.10
2018-04-14T15:26:17.035Z,18.00
2018-04-14T15:28:44.665Z,17.90
2018-04-14T15:31:12.168Z,18.00
2018-04-14T15:33:39.845Z,17.90
2018-04-14T15:36:07.493Z,17.80
2018-04-14T15:38:34.999Z,17.80
2018-04-14T15:41:03.451Z,17.70
2018-04-14T15:43:31.493Z,17.70
2018-04-14T15:45:58.947Z,17.80
2018-04-14T15:48:26.546Z,17.60
2018-04-14T15:50:54.056Z,17.60
2018-04-14T15:53:21.566Z,17.70
2018-04-14T15:55:49.121Z,17.70
2018-04-14T15:58:16.693Z,17.70
2018-04-14T16:00:44.195Z,17.60
2018-04-14T16:03:11.713Z,17.50
2018-04-14T16:05:39.193Z,17.60
2018-04-14T16:08:07.466Z,17.40
2018-04-14T16:10:35.045Z,17.40
2018-04-14T16:13:02.591Z,17.50
2018-04-14T16:15:30.130Z,17.50
2018-04-14T16:17:57.627Z,17.40
2018-04-14T16:20:26.071Z,17.20
2018-04-14T16:22:54.319Z,17.20
2018-04-14T16:25:21.926Z,17.20
2018-04-14T16:27:49.486Z,17.00
2018-04-14T16:30:16.960Z,16.90
2018-04-14T16:32:44.969Z,16.90
2018-04-14T16:35:14.252Z,17.00
2018-04-14T16:37:41.832Z,17.00
2018-04-14T16:40:09.432Z,17.10
2018-04-14T16:42:37.784Z,16.80
2018-04-14T16:45:05.296Z,16.80
2018-04-14T16:47:33.128Z,16.80
2018-04-14T16:50:00.619Z,16.70
2018-04-14T16:52:28.180Z,16.40
2018-04-14T16:54:55.756Z,16.40
2018-04-14T16:57:23.259Z,16.30
2018-04-14T16:59:50.791Z,16.20
2018-04-14T17:02:18.275Z,16.20
2018-04-14T17:04:46.189Z,16.20
2018-04-14T17:07:13.778Z,16.10
2018-04-14T17:09:43.212Z,16.10
2018-04-14T17:12:11.563Z,15.90
2018-04-14T17:14:39.868Z,15.80
2018-04-14T17:17:07.379Z,15.80
2018-04-14T17:19:35.682Z,15.50
2018-04-14T17:22:04.836Z,15.40
2018-04-14T17:24:32.300Z,15.40
2018-04-14T17:26:59.910Z,15.30
2018-04-14T17:29:27.426Z,15.30
2018-04-14T17:31:55.195Z,15.20
2018-04-14T17:34:22.691Z,15.20
2018-04-14T17:36:50.193Z,15.10
2018-04-14T17:39:17.727Z,15.10
2018-04-14T17:41:46.114Z,14.90
2018-04-14T17:44:13.632Z,14.90
2018-04-14T17:46:41.189Z,14.80
2018-04-14T17:49:09.052Z,14.70
2018-04-14T17:51:36.643Z,14.70
2018-04-14T17:54:05.137Z,14.60
2018-04-14T17:56:32.585Z,14.60
2018-04-14T17:59:00.162Z,14.50
2018-04-14T18:01:27.789Z,14.50
2018-04-14T18:03:55.244Z,14.50
2018-04-14T18:06:22.783Z,14.40
2018-04-14T18:08:50.351Z,14.40
2018-04-14T18:11:17.960Z,14.30
2018-04-14T18:13:46.123Z,14.30
2018-04-14T18:16:13.862Z,14.20
2018-04-14T18:18:41.548Z,14.20
2018-04-14T18:21:09.696Z,14.10
2018-04-14T18:23:37.969Z,14.10
2018-04-14T18:26:05.522Z,14.10
2018-04-14T18:28:33.160Z,14.10
2018-04-14T18:31:00.711Z,14.00
2018-04-14T18:33:28.522Z,14.00
2018-04-14T18:35:56.068Z,13.90
2018-04-14T18:38:24.225Z,13.90
2018-04-14T18:40:52.730Z,13.80
2018-04-14T18:43:20.378Z,13.80
2018-04-14T18:45:48.095Z,13.80
2018-04-14T18:48:15.621Z,13.70
2018-04-14T18:50:43.170Z,13.70
2018-04-14T18:53:10.666Z,13.70
2018-04-14T18:55:38.248Z,13.60
2018-04-14T18:58:05.770Z,13.60
2018-04-14T19:00:33.222Z,13.50
2018-04-14T19:03:00.795Z,13.40
2018-04-14T19:05:28.273Z,13.30
2018-04-14T19:07:55.910Z,13.30
2018-04-14T19:10:23.492Z,13.30
2018-04-14T19:12:51.784Z,13.30
2018-04-14T19:15:19.323Z,13.30
2018-04-14T19:17:46.772Z,13.30
2018-04-14T19:20:14.309Z,13.30
2018-04-14T19:22:43.028Z,13.30
2018-04-14T19:25:10.582Z,13.20
2018-04-14T19:27:39.344Z,13.20
2018-04-14T19:30:08.549Z,13.20
2018-04-14T19:32:36.590Z,13.10
2018-04-14T19:35:04.183Z,13.10
2018-04-14T19:37:33.596Z,13.10
2018-04-14T19:40:01.333Z,13.10
2018-04-14T19:42:30.123Z,13.10
2018-04-14T19:44:57.720Z,13.10
2018-04-14T19:47:25.573Z,13.10
2018-04-14T19:49:53.192Z,13.00
2018-04-14T19:52:20.873Z,13.10
2018-04-14T19:54:49.189Z,13.00
2018-04-14T19:57:17.543Z,13.00
2018-04-14T19:59:45.261Z,12.90
2018-04-14T20:02:13.715Z,12.90
2018-04-14T20:04:41.291Z,12.90
2018-04-14T20:07:10.825Z,12.90
2018-04-14T20:09:39.440Z,12.80
2018-04-14T20:12:07.762Z,12.70
2018-04-14T20:14:35.293Z,12.70
2018-04-14T20:17:02.822Z,12.70
2018-04-14T20:19:31.217Z,12.60
2018-04-14T20:21:58.791Z,12.50
2018-04-14T20:24:26.526Z,12.60
2018-04-14T20:26:54.757Z,12.60
2018-04-14T20:29:22.321Z,12.60
2018-04-14T20:31:50.025Z,12.50
2018-04-14T20:34:17.621Z,12.50
2018-04-14T20:36:45.164Z,12.50
2018-04-14T20:39:12.714Z,12.50
2018-04-14T20:41:40.219Z,12.50
2018-04-14T20:44:07.763Z,12.50
2018-04-14T20:46:35.421Z,12.50
2018-04-14T20:49:03.120Z,12.50
2018-04-14T20:51:30.676Z,12.50
2018-04-14T20:53:58.948Z,12.40
2018-04-14T20:56:26.420Z,12.30
2018-04-14T20:58:54.744Z,12.30
2018-04-14T21:01:23.087Z,12.40
2018-04-14T21:03:51.362Z,12.30
2018-04-14T21:06:18.833Z,12.30
2018-04-14T21:08:46.365Z,12.40
2018-04-14T21:11:13.867Z,12.40
2018-04-14T21:13:41.390Z,12.40
2018-04-14T21:16:08.957Z,12.30
2018-04-14T21:18:36.528Z,12.30
2018-04-14T21:21:05.250Z,12.30
2018-04-14T21:23:32.793Z,12.30
2018-04-14T21:26:00.587Z,12.30
2018-04-14T21:28:28.069Z,12.30
2018-04-14T21:30:56.584Z,12.30
2018-04-14T21:33:24.096Z,12.30
2018-04-14T21:35:52.463Z,12.30
2018-04-14T21:38:20.126Z,12.30
2018-04-14T21:40:47.652Z,12.30
2018-04-14T21:43:15.147Z,12.30
2018-04-14T21:45:43.467Z,12.20
2018-04-14T21:48:11.011Z,12.20
2018-04-14T21:50:39.256Z,12.20
2018-04-14T21:53:06.840Z,12.20
2018-04-14T21:55:34.323Z,12.20
2018-04-14T21:58:01.823Z,12.20
2018-04-14T22:00:29.516Z,12.10
2018-04-14T22:02:57.726Z,12.20
2018-04-14T22:05:25.259Z,12.10
2018-04-14T22:07:52.783Z,12.10
2018-04-14T22:10:21.187Z,12.10
2018-04-14T22:12:49.017Z,12.10
2018-04-14T22:15:16.491Z,12.10
2018-04-14T22:17:44.801Z,12.10
2018-04-14T22:20:12.315Z,12.10
2018-04-14T22:22:41.597Z,12.10
2018-04-14T22:25:09.077Z,12.00
2018-04-14T22:27:38.612Z,11.90
2018-04-14T22:30:06.213Z,12.00
2018-04-14T22:32:33.874Z,12.00
2018-04-14T22:35:01.383Z,11.90
2018-04-14T22:37:29.668Z,11.80
2018-04-14T22:39:57.943Z,11.70
2018-04-14T22:42:26.299Z,11.70
2018-04-14T22:44:53.788Z,11.70
2018-04-14T22:47:22.064Z,11.60
2018-04-14T22:49:49.666Z,11.60
2018-04-14T22:52:17.263Z,11.60
2018-04-14T22:54:45.235Z,11.60
2018-04-14T22:57:12.755Z,11.50
2018-04-14T22:59:41.025Z,11.50
2018-04-14T23:02:09.323Z,11.30
2018-04-14T23:04:36.815Z,11.40
2018-04-14T23:07:04.421Z,11.30
2018-04-14T23:09:31.915Z,11.20
2018-04-14T23:11:59.461Z,11.20
2018-04-14T23:14:26.948Z,11.20
2018-04-14T23:16:54.781Z,11.20
2018-04-14T23:19:22.261Z,11.10
2018-04-14T23:21:50.709Z,11.10
2018-04-14T23:24:18.276Z,11.10
2018-04-14T23:26:45.919Z,11.10
2018-04-14T23:29:13.447Z,11.10
2018-04-14T23:31:41.028Z,11.00
2018-04-14T23:34:08.529Z,11.00
2018-04-14T23:36:36.054Z,11.00
2018-04-14T23:39:04.322Z,10.90
2018-04-14T23:41:32.630Z,10.90
2018-04-14T23:44:00.933Z,10.90
2018-04-14T23:46:28.412Z,10.90
2018-04-14T23:48:55.916Z,10.90
2018-04-14T23:51:24.283Z,10.90
2018-04-14T23:53:51.820Z,10.90
2018-04-14T23:56:19.302Z,10.90
2018-04-14T23:58:47.613Z,10.90
